Time;durP1;ratioP1;P1;durP2;ratioP2;P2;SDS_P1;SDS_P2;PMS_P1;PMS_P2;Temp;Humidity;BMP_temperature;BMP_pressure;BME280_temperature;BME280_humidity;BME280_pressure;Samples;Min_cycle;Max_cycle;Signal;HPM_P1;HPM_P2
2021/05/26 00:00:35;;;;;;;12.43;8.63;;;7.80;99.90;;;;;;5027977;28;20041;-64
2021/05/26 00:03:02;;;;;;;16.77;9.70;;;7.90;99.90;;;;;;5021842;28;20076;-64
2021/05/26 00:05:31;;;;;;;14.18;9.27;;;7.90;99.90;;;;;;5028831;28;20046;-64
2021/05/26 00:07:57;;;;;;;14.45;9.38;;;7.90;99.90;;;;;;5024652;28;20128;-64
2021/05/26 00:10:24;;;;;;;12.63;9.10;;;7.90;99.90;;;;;;5029364;28;20045;-64
2021/05/26 00:12:50;;;;;;;21.55;10.38;;;8.00;99.90;;;;;;5021114;28;20046;-64
2021/05/26 00:15:16;;;;;;;12.25;9.00;;;7.90;99.90;;;;;;5041492;28;20064;-64
2021/05/26 00:17:42;;;;;;;17.98;10.20;;;8.00;99.90;;;;;;5022711;28;20033;-64
2021/05/26 00:20:08;;;;;;;18.42;10.63;;;8.00;99.90;;;;;;5031120;28;20068;-64
2021/05/26 00:22:34;;;;;;;22.55;11.65;;;8.00;99.90;;;;;;5031185;28;20037;-64
2021/05/26 00:25:00;;;;;;;19.38;11.68;;;8.00;99.90;;;;;;5037706;28;20091;-64
2021/05/26 00:27:26;;;;;;;17.20;10.35;;;8.00;99.90;;;;;;5020647;28;20037;-64
2021/05/26 00:29:51;;;;;;;19.55;11.18;;;8.10;99.90;;;;;;5031065;28;20061;-64
2021/05/26 00:32:17;;;;;;;13.32;9.38;;;8.10;99.90;;;;;;5025959;28;20124;-64
2021/05/26 00:34:43;;;;;;;22.08;11.25;;;8.10;99.90;;;;;;5031894;28;20053;-64
2021/05/26 00:37:09;;;;;;;14.85;9.50;;;8.00;99.90;;;;;;5030711;28;20045;-64
2021/05/26 00:39:35;;;;;;;13.27;9.73;;;8.00;99.90;;;;;;5023774;28;20041;-64
2021/05/26 00:42:01;;;;;;;14.98;10.77;;;7.90;99.90;;;;;;5029727;28;20049;-64
2021/05/26 00:44:26;;;;;;;18.77;10.93;;;8.00;99.90;;;;;;5023164;28;20053;-64
2021/05/26 00:46:52;;;;;;;14.57;10.30;;;8.00;99.90;;;;;;5030532;28;20111;-64
2021/05/26 00:49:18;;;;;;;16.88;11.50;;;8.00;99.90;;;;;;5031405;28;20045;-64
2021/05/26 00:51:44;;;;;;;16.15;10.88;;;7.90;99.90;;;;;;5028929;28;20041;-64
2021/05/26 00:54:10;;;;;;;27.08;13.23;;;8.00;99.90;;;;;;5020448;28;20049;-64
2021/05/26 00:56:37;;;;;;;23.70;12.77;;;8.00;99.90;;;;;;5030970;28;20061;-64
2021/05/26 00:59:05;;;;;;;20.67;11.73;;;8.00;99.90;;;;;;5036236;28;20495;-64
2021/05/26 01:01:31;;;;;;;14.48;11.32;;;8.10;99.90;;;;;;5032306;28;20136;-64
2021/05/26 01:03:57;;;;;;;24.15;14.35;;;8.10;99.90;;;;;;5021397;28;20064;-64
2021/05/26 01:06:24;;;;;;;23.85;13.82;;;8.20;99.90;;;;;;5033017;28;20030;-64
2021/05/26 01:08:50;;;;;;;18.95;14.02;;;8.30;99.90;;;;;;5024070;28;20100;-64
2021/05/26 01:11:16;;;;;;;25.83;15.90;;;8.30;99.90;;;;;;5023825;28;20052;-64
2021/05/26 01:13:45;;;;;;;25.98;15.43;;;8.40;99.90;;;;;;5024267;28;20497;-64
2021/05/26 01:16:11;;;;;;;24.70;15.98;;;8.40;99.90;;;;;;5041413;28;20127;-64
2021/05/26 01:18:37;;;;;;;32.85;18.23;;;8.50;99.90;;;;;;5033383;28;20582;-64
2021/05/26 01:21:09;;;;;;;23.48;14.60;;;8.60;99.90;;;;;;5020783;28;20495;-64
2021/05/26 01:23:36;;;;;;;32.00;16.67;;;8.60;99.90;;;;;;5024067;28;20045;-64
2021/05/26 01:26:04;;;;;;;15.10;13.35;;;8.60;99.90;;;;;;5026657;28;20320;-64
2021/05/26 01:28:31;;;;;;;25.48;14.85;;;8.60;99.90;;;;;;5030971;28;20049;-64
2021/05/26 01:30:57;;;;;;;22.25;14.55;;;8.70;99.90;;;;;;5024018;28;20462;-64
2021/05/26 01:33:23;;;;;;;23.48;13.98;;;8.70;99.90;;;;;;5032945;28;20043;-64
2021/05/26 01:35:49;;;;;;;19.42;12.90;;;8.70;99.90;;;;;;5022284;28;20049;-64
2021/05/26 01:38:18;;;;;;;24.13;13.80;;;8.80;99.90;;;;;;5024469;28;20034;-64
2021/05/26 01:40:44;;;;;;;26.27;14.05;;;8.80;99.90;;;;;;5024302;28;20041;-64
2021/05/26 01:43:11;;;;;;;18.13;12.73;;;8.80;99.90;;;;;;5037724;28;20389;-64
2021/05/26 01:45:37;;;;;;;19.55;13.18;;;8.80;99.90;;;;;;5025103;28;20041;-64
2021/05/26 01:48:03;;;;;;;23.08;14.85;;;8.90;99.90;;;;;;5032459;28;20470;-64
2021/05/26 01:50:29;;;;;;;21.98;13.63;;;8.90;99.90;;;;;;5029741;28;20469;-64
2021/05/26 01:53:02;;;;;;;18.08;13.55;;;9.00;99.90;;;;;;5040728;28;20049;-64
2021/05/26 01:55:28;;;;;;;17.73;12.63;;;9.00;99.90;;;;;;5023273;28;20462;-64
2021/05/26 01:57:54;;;;;;;22.25;12.93;;;9.00;99.90;;;;;;5028449;28;20042;-64
2021/05/26 02:00:21;;;;;;;19.98;12.77;;;9.00;99.90;;;;;;5036486;28;20320;-64
2021/05/26 02:02:47;;;;;;;20.00;12.43;;;9.00;99.90;;;;;;5020043;28;20046;-64
2021/05/26 02:05:14;;;;;;;20.40;12.40;;;9.00;99.90;;;;;;5030103;28;20168;-64
2021/05/26 02:07:40;;;;;;;17.85;12.23;;;9.00;99.90;;;;;;5029299;28;20065;-64
2021/05/26 02:10:09;;;;;;;15.60;11.95;;;9.00;99.90;;;;;;5033590;28;20045;-64
2021/05/26 02:12:40;;;;;;;15.35;12.15;;;9.00;99.90;;;;;;5020850;28;20456;-64
2021/05/26 02:15:08;;;;;;;15.93;12.57;;;9.10;99.90;;;;;;5028755;28;20432;-64
2021/05/26 02:17:33;;;;;;;23.27;14.07;;;9.00;99.90;;;;;;5028859;28;20036;-64
2021/05/26 02:19:59;;;;;;;23.42;13.55;;;9.10;99.90;;;;;;5030256;28;20048;-64
2021/05/26 02:22:25;;;;;;;17.73;12.95;;;9.10;99.90;;;;;;5025166;28;20060;-64
2021/05/26 02:24:51;;;;;;;17.92;12.20;;;9.10;99.90;;;;;;5027320;28;20216;-64
2021/05/26 02:27:17;;;;;;;17.52;13.68;;;9.10;99.90;;;;;;5028834;28;20509;-64
2021/05/26 02:29:44;;;;;;;21.30;13.73;;;9.10;99.90;;;;;;5031371;28;20052;-62
2021/05/26 02:32:10;;;;;;;24.90;14.65;;;9.10;99.90;;;;;;5023933;28;20569;-63
2021/05/26 02:34:37;;;;;;;25.55;16.02;;;9.10;99.90;;;;;;5026833;28;20057;-62
2021/05/26 02:37:03;;;;;;;29.75;16.83;;;9.20;99.90;;;;;;5027498;28;20119;-63
2021/05/26 02:39:29;;;;;;;27.75;18.30;;;9.20;99.90;;;;;;5027373;28;20044;-63
2021/05/26 02:41:55;;;;;;;27.08;18.15;;;9.20;99.90;;;;;;5027595;28;20045;-63
2021/05/26 02:44:21;;;;;;;34.42;20.17;;;9.20;99.90;;;;;;5016974;28;20100;-63
2021/05/26 02:46:48;;;;;;;31.10;20.70;;;9.20;99.90;;;;;;5021577;28;20056;-63
2021/05/26 02:49:14;;;;;;;27.30;20.00;;;9.20;99.90;;;;;;5024757;28;20037;-63
2021/05/26 02:51:40;;;;;;;36.20;21.55;;;9.20;99.90;;;;;;5026836;28;20408;-63
2021/05/26 02:54:07;;;;;;;33.67;21.15;;;9.20;99.90;;;;;;5030338;28;20045;-63
2021/05/26 02:56:34;;;;;;;29.83;21.40;;;9.20;99.90;;;;;;5029951;28;20042;-63
2021/05/26 02:59:01;;;;;;;35.70;22.05;;;9.20;99.90;;;;;;5024967;28;23032;-63
2021/05/26 03:01:27;;;;;;;34.45;23.35;;;9.20;99.90;;;;;;5031261;28;20128;-63
2021/05/26 03:03:52;;;;;;;39.35;25.48;;;9.10;99.90;;;;;;5027440;28;20120;-62
2021/05/26 03:06:18;;;;;;;44.40;25.63;;;9.10;99.90;;;;;;5028036;28;20482;-63
2021/05/26 03:08:44;;;;;;;49.80;27.42;;;9.10;99.90;;;;;;5023812;28;20044;-63
2021/05/26 03:11:10;;;;;;;39.65;25.08;;;9.10;99.90;;;;;;5028123;28;20046;-63
2021/05/26 03:13:35;;;;;;;37.35;26.77;;;9.20;99.90;;;;;;5019502;28;20092;-63
2021/05/26 03:16:02;;;;;;;36.55;23.08;;;9.10;99.90;;;;;;5029515;28;20053;-63
2021/05/26 03:18:29;;;;;;;34.40;24.02;;;9.10;99.90;;;;;;5028432;28;20139;-63
2021/05/26 03:20:55;;;;;;;41.72;24.75;;;9.10;99.90;;;;;;5035460;28;20412;-63
2021/05/26 03:23:21;;;;;;;38.42;24.55;;;9.10;99.90;;;;;;5029001;28;20119;-63
2021/05/26 03:25:47;;;;;;;46.28;25.33;;;9.10;99.90;;;;;;5023910;28;20448;-63
2021/05/26 03:28:17;;;;;;;40.90;25.52;;;9.10;99.90;;;;;;5035359;28;20069;-63
2021/05/26 03:30:43;;;;;;;42.22;25.08;;;9.10;99.90;;;;;;5015874;28;20095;-63
2021/05/26 03:33:12;;;;;;;49.92;25.52;;;9.10;99.90;;;;;;5025980;28;20069;-63
2021/05/26 03:35:39;;;;;;;43.00;25.17;;;9.10;99.90;;;;;;5027814;28;20539;-63
2021/05/26 03:38:06;;;;;;;41.17;24.27;;;9.10;99.90;;;;;;5030270;28;20499;-63
2021/05/26 03:40:32;;;;;;;39.78;22.50;;;9.10;99.90;;;;;;5025455;28;20046;-63
2021/05/26 03:42:58;;;;;;;38.50;23.48;;;9.10;99.90;;;;;;5028616;28;20038;-63
2021/05/26 03:45:23;;;;;;;37.42;22.13;;;9.10;99.90;;;;;;5023818;28;20492;-63
2021/05/26 03:47:49;;;;;;;31.63;21.23;;;9.10;99.90;;;;;;5029626;28;20068;-63
2021/05/26 03:50:15;;;;;;;42.00;22.08;;;9.00;99.90;;;;;;5029023;28;20231;-63
2021/05/26 03:52:46;;;;;;;31.20;19.75;;;9.00;99.90;;;;;;5044021;28;20128;-63
2021/05/26 03:55:15;;;;;;;33.70;19.15;;;9.00;99.90;;;;;;5026697;28;20540;-63
2021/05/26 03:57:40;;;;;;;27.35;17.85;;;8.90;99.90;;;;;;5032486;28;20037;-63
2021/05/26 04:00:12;;;;;;;28.10;17.02;;;8.90;99.90;;;;;;5027545;28;20420;-63
2021/05/26 04:02:39;;;;;;;26.63;16.42;;;8.80;99.90;;;;;;5034436;28;20038;-63
2021/05/26 04:05:06;;;;;;;24.45;15.55;;;8.70;99.90;;;;;;5032670;28;20060;-63
2021/05/26 04:07:32;;;;;;;25.88;15.05;;;8.70;99.90;;;;;;5024918;28;20049;-63
2021/05/26 04:09:58;;;;;;;23.70;14.75;;;8.70;99.90;;;;;;5033979;28;20030;-62
2021/05/26 04:12:25;;;;;;;25.85;15.52;;;8.60;99.90;;;;;;5032413;28;20557;-63
2021/05/26 04:14:57;;;;;;;21.42;13.65;;;8.60;99.90;;;;;;5032945;28;20052;-63
2021/05/26 04:17:23;;;;;;;23.75;13.40;;;8.50;99.90;;;;;;5025628;28;20037;-63
2021/05/26 04:19:49;;;;;;;22.85;13.20;;;8.50;99.90;;;;;;5041852;28;20052;-63
2021/05/26 04:22:17;;;;;;;19.23;13.15;;;8.50;99.90;;;;;;5028084;28;20428;-63
2021/05/26 04:24:44;;;;;;;24.88;12.25;;;8.50;99.90;;;;;;5030791;28;20034;-63
2021/05/26 04:27:10;;;;;;;20.92;12.55;;;8.50;99.90;;;;;;5025860;28;20283;-63
2021/05/26 04:29:35;;;;;;;20.63;12.75;;;8.50;99.90;;;;;;5043342;28;20285;-63
2021/05/26 04:32:01;;;;;;;18.75;10.93;;;8.50;99.90;;;;;;5028468;28;20049;-63
2021/05/26 04:34:27;;;;;;;17.52;10.77;;;8.50;99.90;;;;;;5032507;28;20048;-63
2021/05/26 04:36:53;;;;;;;21.92;12.18;;;8.50;99.90;;;;;;5028019;28;20103;-64
2021/05/26 04:39:18;;;;;;;15.82;11.32;;;8.60;99.90;;;;;;5043728;28;20438;-63
2021/05/26 04:41:44;;;;;;;18.85;11.10;;;8.70;99.90;;;;;;5024868;28;20026;-63
2021/05/26 04:44:10;;;;;;;13.90;9.05;;;8.90;99.90;;;;;;5034988;28;20049;-64
2021/05/26 04:46:36;;;;;;;12.68;9.02;;;9.00;99.90;;;;;;5034561;28;20049;-63
2021/05/26 04:49:03;;;;;;;10.77;9.20;;;9.20;99.90;;;;;;5028660;28;20048;-63
2021/05/26 04:51:28;;;;;;;14.73;8.95;;;9.20;99.90;;;;;;5028397;28;20048;-63
2021/05/26 04:53:54;;;;;;;16.00;9.48;;;9.30;99.90;;;;;;5022898;28;20030;-63
2021/05/26 04:56:20;;;;;;;13.68;8.73;;;9.30;99.90;;;;;;5036062;28;20128;-64
2021/05/26 04:58:46;;;;;;;13.07;8.13;;;9.40;99.90;;;;;;5026012;28;20033;-64
2021/05/26 05:01:12;;;;;;;15.23;8.65;;;9.30;99.90;;;;;;5030807;28;20468;-64
2021/05/26 05:03:38;;;;;;;17.05;8.38;;;9.30;99.90;;;;;;5026007;28;20107;-64
2021/05/26 05:06:04;;;;;;;18.30;7.93;;;9.30;99.90;;;;;;5042585;28;20037;-64
2021/05/26 05:08:30;;;;;;;14.85;8.13;;;9.30;99.90;;;;;;5022304;28;20051;-64
2021/05/26 05:10:56;;;;;;;13.60;7.75;;;9.30;99.90;;;;;;5037259;28;20061;-64
2021/05/26 05:13:23;;;;;;;15.40;8.38;;;9.30;99.90;;;;;;5029959;28;20073;-64
2021/05/26 05:15:48;;;;;;;11.10;7.05;;;9.30;99.90;;;;;;5026406;28;20281;-64
2021/05/26 05:18:14;;;;;;;11.43;7.22;;;9.30;99.90;;;;;;5027002;28;20037;-64
2021/05/26 05:20:40;;;;;;;13.18;8.35;;;9.30;99.90;;;;;;5038222;28;20052;-64
2021/05/26 05:23:06;;;;;;;9.10;7.50;;;9.40;99.90;;;;;;5036106;28;20111;-64
2021/05/26 05:25:32;;;;;;;15.30;8.25;;;9.40;99.90;;;;;;5022944;28;20053;-64
2021/05/26 05:27:58;;;;;;;10.70;7.70;;;9.50;99.90;;;;;;5034156;28;20516;-64
2021/05/26 05:30:24;;;;;;;10.43;6.68;;;9.50;99.90;;;;;;5028048;28;20060;-64
2021/05/26 05:32:50;;;;;;;11.75;6.82;;;9.50;99.90;;;;;;5042366;28;20056;-64
2021/05/26 05:35:16;;;;;;;11.25;5.97;;;9.60;99.90;;;;;;5020643;28;20118;-64
2021/05/26 05:37:42;;;;;;;7.60;5.28;;;9.50;99.90;;;;;;5030164;28;20448;-64
2021/05/26 05:40:08;;;;;;;13.07;6.18;;;9.50;99.90;;;;;;5033031;28;20075;-64
2021/05/26 05:42:34;;;;;;;12.73;4.85;;;9.40;99.90;;;;;;5030257;28;20041;-64
2021/05/26 05:45:00;;;;;;;8.23;5.13;;;9.40;99.90;;;;;;5024720;28;20081;-64
2021/05/26 05:47:26;;;;;;;8.82;4.93;;;9.50;99.90;;;;;;5032345;28;20088;-64
2021/05/26 05:49:51;;;;;;;10.27;5.05;;;9.50;99.90;;;;;;5027900;28;20041;-64
2021/05/26 05:52:17;;;;;;;9.27;4.78;;;9.50;99.90;;;;;;5035335;28;20037;-64
2021/05/26 05:54:44;;;;;;;8.85;5.28;;;9.50;99.90;;;;;;5024812;28;20038;-64
2021/05/26 05:57:10;;;;;;;6.82;4.97;;;9.60;99.90;;;;;;5031689;28;20125;-64
2021/05/26 05:59:36;;;;;;;9.65;5.72;;;9.60;99.90;;;;;;5038223;28;20420;-64
2021/05/26 06:02:02;;;;;;;12.30;6.45;;;9.60;99.90;;;;;;5027885;28;20394;-64
2021/05/26 06:04:28;;;;;;;11.32;8.00;;;9.60;99.90;;;;;;5035734;28;20041;-63
2021/05/26 06:06:53;;;;;;;12.65;7.00;;;9.70;99.90;;;;;;5033632;28;20041;-64
2021/05/26 06:09:20;;;;;;;13.38;7.95;;;9.90;99.90;;;;;;5035970;28;20093;-64
2021/05/26 06:11:50;;;;;;;10.10;7.03;;;10.10;99.90;;;;;;5021630;28;20056;-64
2021/05/26 06:14:19;;;;;;;14.82;8.85;;;10.30;99.90;;;;;;5035480;28;20104;-64
2021/05/26 06:16:45;;;;;;;11.07;7.40;;;10.40;99.90;;;;;;5030324;28;20045;-64
2021/05/26 06:19:10;;;;;;;10.57;7.75;;;10.50;99.90;;;;;;5034590;28;20129;-63
2021/05/26 06:21:36;;;;;;;12.35;8.88;;;10.70;99.90;;;;;;5028426;28;20041;-63
2021/05/26 06:24:03;;;;;;;14.68;9.88;;;10.80;99.90;;;;;;5031381;28;20436;-63
2021/05/26 06:26:32;;;;;;;13.77;11.02;;;10.90;99.90;;;;;;5026892;28;20065;-63
2021/05/26 06:28:59;;;;;;;16.73;9.20;;;11.20;99.90;;;;;;5027697;28;20041;-64
2021/05/26 06:31:25;;;;;;;12.68;8.63;;;11.40;99.90;;;;;;5023311;28;20129;-64
2021/05/26 06:33:51;;;;;;;12.38;8.15;;;11.40;99.90;;;;;;5043168;28;20128;-64
2021/05/26 06:36:17;;;;;;;12.90;7.85;;;11.50;99.90;;;;;;5022925;28;20049;-64
2021/05/26 06:38:43;;;;;;;11.77;9.55;;;11.40;99.90;;;;;;5029126;28;20069;-63
2021/05/26 06:41:10;;;;;;;16.38;8.90;;;11.30;99.90;;;;;;5032652;28;20060;-63
2021/05/26 06:43:36;;;;;;;16.98;9.55;;;11.30;99.90;;;;;;5026793;28;20045;-63
2021/05/26 06:46:02;;;;;;;15.13;9.98;;;11.30;99.90;;;;;;5033522;28;20445;-63
2021/05/26 06:48:28;;;;;;;16.85;8.63;;;11.30;99.90;;;;;;5025463;28;20048;-64
2021/05/26 06:50:53;;;;;;;15.90;9.30;;;11.20;99.90;;;;;;5038361;28;20417;-64
2021/05/26 06:53:19;;;;;;;14.52;9.88;;;11.20;99.90;;;;;;5027640;28;20441;-64
2021/05/26 06:55:45;;;;;;;18.08;9.50;;;11.20;99.90;;;;;;5018920;28;20096;-64
2021/05/26 06:58:11;;;;;;;16.30;9.65;;;11.20;99.90;;;;;;5022616;28;20084;-64
2021/05/26 07:00:36;;;;;;;16.30;10.40;;;11.20;99.90;;;;;;5031498;28;20041;-64
2021/05/26 07:03:04;;;;;;;17.15;9.82;;;11.20;99.90;;;;;;5022999;28;20041;-64
2021/05/26 07:05:29;;;;;;;17.20;10.05;;;11.20;99.90;;;;;;5028626;28;20037;-64
2021/05/26 07:07:55;;;;;;;18.95;10.95;;;11.20;99.90;;;;;;5027506;28;20088;-64
2021/05/26 07:10:22;;;;;;;15.05;9.90;;;11.20;99.90;;;;;;5031494;28;20444;-64
2021/05/26 07:12:50;;;;;;;19.55;11.57;;;11.20;99.90;;;;;;5021219;28;20061;-64
2021/05/26 07:15:17;;;;;;;16.95;10.88;;;11.30;99.90;;;;;;5035033;28;20461;-64
2021/05/26 07:17:43;;;;;;;17.63;11.88;;;11.30;99.90;;;;;;5027332;28;20041;-64
2021/05/26 07:20:13;;;;;;;18.90;12.18;;;11.30;99.90;;;;;;5027504;28;20465;-64
2021/05/26 07:22:39;;;;;;;20.55;11.40;;;11.40;99.90;;;;;;5037153;28;20043;-64
2021/05/26 07:25:05;;;;;;;20.13;11.35;;;11.40;99.90;;;;;;5027893;28;20045;-64
2021/05/26 07:27:31;;;;;;;19.45;13.15;;;11.40;99.90;;;;;;5036174;28;20076;-64
2021/05/26 07:29:57;;;;;;;19.33;12.63;;;11.40;99.90;;;;;;5026455;28;20132;-64
2021/05/26 07:32:23;;;;;;;12.52;11.30;;;11.30;99.90;;;;;;5030571;28;20455;-64
2021/05/26 07:34:48;;;;;;;16.17;11.98;;;11.30;99.90;;;;;;5029491;28;20037;-64
2021/05/26 07:37:15;;;;;;;20.88;12.98;;;11.30;99.90;;;;;;5035963;28;20049;-63
2021/05/26 07:39:40;;;;;;;20.25;12.38;;;11.30;99.90;;;;;;5027224;28;20047;-63
2021/05/26 07:42:09;;;;;;;22.20;13.43;;;11.30;99.90;;;;;;5035677;28;20113;-63
2021/05/26 07:44:35;;;;;;;21.48;14.15;;;11.30;99.90;;;;;;5036745;28;20041;-63
2021/05/26 07:47:01;;;;;;;22.83;13.20;;;11.30;99.90;;;;;;5034339;28;20077;-64
2021/05/26 07:49:27;;;;;;;22.10;14.23;;;11.20;99.90;;;;;;5028009;28;20037;-64
2021/05/26 07:51:55;;;;;;;28.30;15.40;;;11.20;99.90;;;;;;5038598;28;20112;-64
2021/05/26 07:54:23;;;;;;;11.25;5.22;;;11.10;99.90;;;;;;5032316;28;20090;-64
2021/05/26 07:56:49;;;;;;;11.63;3.50;;;11.00;99.90;;;;;;5036065;28;20416;-65
2021/05/26 07:59:15;;;;;;;6.82;2.40;;;10.60;99.90;;;;;;5035425;28;20041;-65
2021/05/26 08:01:42;;;;;;;20.90;3.08;;;10.40;99.90;;;;;;5035855;28;20099;-65
2021/05/26 08:04:12;;;;;;;8.05;3.33;;;10.20;99.90;;;;;;5035950;28;20053;-65
2021/05/26 08:06:38;;;;;;;9.85;4.25;;;10.00;99.90;;;;;;5023238;28;20056;-66
2021/05/26 08:09:04;;;;;;;8.70;4.07;;;9.90;99.90;;;;;;5032761;28;20040;-65
2021/05/26 08:11:31;;;;;;;13.10;5.78;;;9.90;99.90;;;;;;5032701;28;20045;-65
2021/05/26 08:13:57;;;;;;;17.98;9.85;;;9.90;99.90;;;;;;5035926;28;20469;-65
2021/05/26 08:16:27;;;;;;;26.98;14.48;;;10.00;99.90;;;;;;5031612;28;20049;-65
2021/05/26 08:18:52;;;;;;;35.03;18.77;;;10.20;99.90;;;;;;5041081;28;20540;-64
2021/05/26 08:21:19;;;;;;;30.60;17.52;;;10.30;99.90;;;;;;5029475;28;20041;-64
2021/05/26 08:23:45;;;;;;;23.08;15.73;;;10.40;99.90;;;;;;5034860;28;20041;-64
2021/05/26 08:26:14;;;;;;;44.40;23.48;;;10.60;99.90;;;;;;5032620;28;20036;-64
2021/05/26 08:28:43;;;;;;;42.35;26.35;;;10.80;99.90;;;;;;5037847;28;20486;-64
2021/05/26 08:31:09;;;;;;;27.50;18.27;;;11.40;99.90;;;;;;5026651;28;20037;-63
2021/05/26 08:33:34;;;;;;;18.33;12.82;;;11.90;99.90;;;;;;5032130;28;20037;-64
2021/05/26 08:36:02;;;;;;;19.58;11.20;;;12.10;99.90;;;;;;5029928;28;20110;-64
2021/05/26 08:38:27;;;;;;;16.02;7.93;;;12.00;99.90;;;;;;5033085;28;20663;-63
2021/05/26 08:40:55;;;;;;;14.38;7.53;;;11.90;99.90;;;;;;5030376;28;20034;-63
2021/05/26 08:43:24;;;;;;;14.52;7.55;;;11.80;99.90;;;;;;5027582;28;20468;-63
2021/05/26 08:45:51;;;;;;;13.48;7.22;;;11.60;99.90;;;;;;5033338;28;20041;-63
2021/05/26 08:48:17;;;;;;;14.15;8.07;;;11.50;99.90;;;;;;5030680;28;20397;-63
2021/05/26 08:50:46;;;;;;;17.95;10.15;;;11.40;99.90;;;;;;5040544;28;20318;-63
2021/05/26 08:53:12;;;;;;;14.88;8.25;;;11.50;99.90;;;;;;5022458;28;20045;-63
2021/05/26 08:55:38;;;;;;;9.55;6.30;;;11.50;99.90;;;;;;5036159;28;20119;-63
2021/05/26 08:58:04;;;;;;;12.40;5.32;;;11.60;99.90;;;;;;5032772;28;20045;-63
2021/05/26 09:00:30;;;;;;;3.80;2.38;;;11.60;99.90;;;;;;5029012;28;22441;-63
2021/05/26 09:02:56;;;;;;;2.83;2.05;;;11.50;99.90;;;;;;5022164;28;20591;-63
2021/05/26 09:05:25;;;;;;;7.25;2.22;;;11.40;99.90;;;;;;5030450;28;20115;-63
2021/05/26 09:07:52;;;;;;;3.97;1.77;;;11.30;99.90;;;;;;5030282;28;20045;-64
2021/05/26 09:10:18;;;;;;;4.28;2.22;;;11.10;99.90;;;;;;5024030;28;20047;-64
2021/05/26 09:12:45;;;;;;;4.95;3.03;;;11.10;99.90;;;;;;5023292;28;20119;-63
2021/05/26 09:15:16;;;;;;;3.97;3.20;;;11.10;99.90;;;;;;5042836;28;20037;-63
2021/05/26 09:17:54;;;;;;;5.80;3.50;;;11.10;99.90;;;;;;5029858;28;20051;-64
2021/05/26 09:20:26;;;;;;;10.25;3.92;;;11.10;99.90;;;;;;5031522;28;20038;-63
2021/05/26 09:23:04;;;;;;;6.35;4.53;;;11.10;99.90;;;;;;5029721;28;20038;-63
2021/05/26 09:25:32;;;;;;;8.88;5.00;;;11.20;99.90;;;;;;5043054;28;20171;-64
2021/05/26 09:28:19;;;;;;;7.70;4.25;;;11.30;99.90;;;;;;5024338;28;20044;-63
2021/05/26 09:30:48;;;;;;;5.40;4.88;;;11.40;99.90;;;;;;5030105;28;20041;-63
2021/05/26 09:33:38;;;;;;;198.68;21.33;;;11.60;99.90;;;;;;5028359;28;20175;-63
2021/05/26 09:36:24;;;;;;;38.88;8.82;;;12.00;99.90;;;;;;5030972;28;20049;-63
2021/05/26 09:38:51;;;;;;;514.58;39.45;;;12.80;99.90;;;;;;5022704;28;20049;-64
2021/05/26 09:41:22;;;;;;;7.38;5.72;;;13.40;99.90;;;;;;5034340;28;20103;-63
2021/05/26 09:43:50;;;;;;;5.30;3.50;;;13.90;99.90;;;;;;5024312;28;20081;-63
2021/05/26 09:46:27;;;;;;;6.22;2.75;;;14.10;99.90;;;;;;5033467;28;20433;-63
2021/05/26 09:49:04;;;;;;;3.72;1.85;;;14.50;99.90;;;;;;5023967;28;20512;-63
2021/05/26 09:51:32;;;;;;;1.75;0.77;;;14.40;99.90;;;;;;5034111;28;20120;-63
2021/05/26 09:54:09;;;;;;;1.55;0.60;;;14.50;99.90;;;;;;5021748;28;20042;-63
2021/05/26 09:56:35;;;;;;;3.50;1.08;;;14.80;99.90;;;;;;5021278;28;20441;-63
2021/05/26 09:59:03;;;;;;;3.15;0.68;;;15.00;99.90;;;;;;5030083;28;20042;-63
2021/05/26 10:01:30;;;;;;;2.33;0.70;;;15.20;99.90;;;;;;5037332;28;20047;-64
2021/05/26 10:03:56;;;;;;;2.60;0.40;;;14.90;99.90;;;;;;5025484;28;20378;-63
2021/05/26 10:06:28;;;;;;;1.17;0.47;;;14.50;99.90;;;;;;5024929;28;20060;-63
2021/05/26 10:08:57;;;;;;;0.93;0.50;;;14.10;99.90;;;;;;5036616;28;20041;-63
2021/05/26 10:11:27;;;;;;;1.30;0.35;;;13.80;99.90;;;;;;5024895;28;20491;-63
2021/05/26 10:13:54;;;;;;;0.98;0.40;;;13.70;99.90;;;;;;5025220;28;20056;-63
2021/05/26 10:16:22;;;;;;;1.98;0.60;;;13.60;99.90;;;;;;5029664;28;20387;-63
2021/05/26 10:18:49;;;;;;;2.05;0.50;;;13.60;99.90;;;;;;5037868;28;20036;-63
2021/05/26 10:21:24;;;;;;;2.10;0.55;;;13.40;99.90;;;;;;5023729;28;20056;-63
2021/05/26 10:23:55;;;;;;;2.67;0.47;;;13.40;99.90;;;;;;5028720;28;20754;-64
2021/05/26 10:27:06;;;;;;;1.35;0.30;;;13.70;99.90;;;;;;5026516;28;20544;-64
2021/05/26 10:29:37;;;;;;;1.27;0.30;;;14.40;99.90;;;;;;5041258;28;20453;-64
2021/05/26 10:32:08;;;;;;;1.60;0.30;;;14.90;99.90;;;;;;5029737;28;20045;-64
2021/05/26 10:34:42;;;;;;;1.90;0.30;;;14.90;99.10;;;;;;5030488;28;20092;-64
2021/05/26 10:37:13;;;;;;;0.95;0.28;;;14.50;95.30;;;;;;5024253;28;20481;-64
2021/05/26 10:39:39;;;;;;;2.00;0.28;;;14.20;97.20;;;;;;5031595;28;20049;-64
2021/05/26 10:42:23;;;;;;;1.75;0.30;;;14.00;98.40;;;;;;5029007;28;20108;-64
2021/05/26 10:45:09;;;;;;;2.00;0.40;;;13.80;98.00;;;;;;5027670;28;20038;-64
2021/05/26 10:47:38;;;;;;;0.82;0.30;;;13.60;97.00;;;;;;5020225;28;20033;-64
2021/05/26 10:50:04;;;;;;;0.52;0.20;;;13.50;98.80;;;;;;5037398;28;20052;-64
2021/05/26 10:52:56;;;;;;;1.13;0.20;;;13.40;98.20;;;;;;5025985;28;20041;-64
2021/05/26 10:55:40;;;;;;;0.82;0.20;;;13.40;96.10;;;;;;5031557;28;20403;-64
2021/05/26 10:58:34;;;;;;;1.05;0.20;;;14.00;99.90;;;;;;5023341;28;20247;-64
2021/05/26 11:01:00;;;;;;;1.60;0.10;;;14.80;98.80;;;;;;5023341;28;20156;-64
2021/05/26 11:06:13;;;;;;;3.20;0.30;;;15.70;95.80;;;;;;5032690;28;20053;-65
2021/05/26 11:08:46;;;;;;;0.73;0.17;;;15.60;87.90;;;;;;5026643;28;20052;-64
2021/05/26 11:11:39;;;;;;;2.75;0.20;;;15.40;93.70;;;;;;5028643;28;20126;-65
2021/05/26 11:14:13;;;;;;;1.65;0.20;;;15.00;90.30;;;;;;5025149;28;20518;-65
2021/05/26 11:16:49;;;;;;;1.25;0.20;;;14.90;90.00;;;;;;5024047;28;20030;-65
2021/05/26 11:19:22;;;;;;;2.45;0.20;;;14.80;90.00;;;;;;5022767;28;20079;-65
2021/05/26 11:22:12;;;;;;;0.90;0.30;;;14.70;91.70;;;;;;5027847;28;20175;-65
2021/05/26 11:24:41;;;;;;;1.20;0.30;;;14.60;90.80;;;;;;5025731;28;20034;-65
2021/05/26 11:27:33;;;;;;;1.02;0.20;;;14.50;92.10;;;;;;5035112;28;20069;-65
2021/05/26 11:30:03;;;;;;;1.48;0.38;;;14.70;91.20;;;;;;5031028;28;20118;-65
2021/05/26 11:32:29;;;;;;;2.05;0.30;;;15.20;95.40;;;;;;5032405;28;20065;-65
2021/05/26 11:34:59;;;;;;;2.90;0.40;;;15.80;94.40;;;;;;5031212;28;20508;-65
2021/05/26 11:37:41;;;;;;;2.60;0.43;;;16.20;94.80;;;;;;5031538;28;20081;-65
2021/05/26 11:40:28;;;;;;;2.85;0.40;;;16.70;84.80;;;;;;5030435;28;20191;-65
2021/05/26 11:42:55;;;;;;;1.20;0.30;;;17.10;85.50;;;;;;5028070;28;20052;-65
2021/05/26 11:45:22;;;;;;;1.42;0.20;;;17.30;90.60;;;;;;5022192;28;20049;-65
2021/05/26 11:47:51;;;;;;;0.63;0.20;;;17.60;91.20;;;;;;5023330;28;20055;-65
2021/05/26 11:50:21;;;;;;;0.82;0.30;;;17.90;89.80;;;;;;5030461;28;20065;-65
2021/05/26 11:52:52;;;;;;;2.25;0.30;;;17.90;86.80;;;;;;5031998;28;20045;-65
2021/05/26 11:55:28;;;;;;;2.80;0.40;;;17.50;76.30;;;;;;5020642;28;20053;-66
2021/05/26 11:57:55;;;;;;;3.13;0.80;;;17.20;74.70;;;;;;5028853;28;20036;-65
2021/05/26 12:00:35;;;;;;;3.10;0.50;;;17.00;86.50;;;;;;5026149;28;20034;-65
2021/05/26 12:03:03;;;;;;;2.17;0.30;;;17.30;88.80;;;;;;5032933;28;20050;-65
2021/05/26 12:05:39;;;;;;;1.88;0.30;;;17.70;89.70;;;;;;5026633;28;20083;-65
2021/05/26 12:08:16;;;;;;;2.55;0.80;;;17.70;78.50;;;;;;5032830;28;20052;-65
2021/05/26 12:10:50;;;;;;;1.80;0.40;;;17.40;75.40;;;;;;5017260;28;20038;-65
2021/05/26 12:13:23;;;;;;;1.75;0.40;;;17.30;82.00;;;;;;5045315;28;20112;-65
2021/05/26 12:15:49;;;;;;;4.35;0.47;;;17.00;72.70;;;;;;5025953;28;20042;-65
2021/05/26 12:18:16;;;;;;;3.08;0.60;;;16.70;80.50;;;;;;5033340;28;20048;-65
2021/05/26 12:20:47;;;;;;;2.28;0.57;;;16.70;80.10;;;;;;5027543;28;20144;-65
2021/05/26 12:23:13;;;;;;;6.13;1.25;;;16.60;77.90;;;;;;5036901;28;20043;-65
2021/05/26 12:25:42;;;;;;;3.42;0.60;;;16.40;80.20;;;;;;5022990;28;20494;-65
2021/05/26 12:28:16;;;;;;;2.30;0.55;;;16.20;82.70;;;;;;5031930;28;20081;-64
2021/05/26 12:30:42;;;;;;;3.38;0.95;;;16.20;79.80;;;;;;5034545;28;20050;-64
2021/05/26 12:33:13;;;;;;;3.83;0.60;;;16.00;81.40;;;;;;5029796;28;20068;-64
2021/05/26 12:35:39;;;;;;;2.22;0.73;;;16.10;79.70;;;;;;5027453;28;20033;-64
2021/05/26 12:38:21;;;;;;;1.48;0.57;;;16.40;87.10;;;;;;5039392;28;20095;-65
2021/05/26 12:40:48;;;;;;;2.55;0.40;;;17.00;84.40;;;;;;5023586;28;20049;-65
2021/05/26 12:43:33;;;;;;;4.70;0.50;;;17.30;82.10;;;;;;5035324;28;20037;-65
2021/05/26 12:45:59;;;;;;;3.47;0.40;;;17.60;76.90;;;;;;5025888;28;20704;-65
2021/05/26 12:48:32;;;;;;;2.65;0.50;;;17.50;77.90;;;;;;5034547;28;20034;-65